createdAt,value
2022-07-27T00:02:27.706Z,24.10
2022-07-27T00:04:58.030Z,24.00
2022-07-27T00:07:28.388Z,24.00
2022-07-27T00:09:58.680Z,24.10
2022-07-27T00:12:29.125Z,24.10
2022-07-27T00:15:01.210Z,24.00
2022-07-27T00:17:31.851Z,24.00
2022-07-27T00:20:02.244Z,23.90
2022-07-27T00:22:32.490Z,23.90
2022-07-27T00:25:02.899Z,23.90
2022-07-27T00:27:33.287Z,23.90
2022-07-27T00:30:04.016Z,23.90
2022-07-27T00:32:34.467Z,23.90
2022-07-27T00:35:04.880Z,23.90
2022-07-27T00:40:21.354Z,23.90
2022-07-27T00:42:51.869Z,23.90
2022-07-27T00:45:22.730Z,23.90
2022-07-27T00:47:55.171Z,23.80
2022-07-27T00:50:26.137Z,23.80
2022-07-27T00:52:57.459Z,23.80
2022-07-27T00:55:29.941Z,23.80
2022-07-27T00:58:00.390Z,23.80
2022-07-27T01:03:17.019Z,23.80
2022-07-27T01:05:47.621Z,23.90
2022-07-27T01:08:18.793Z,23.90
2022-07-27T01:10:49.852Z,23.90
2022-07-27T01:13:21.299Z,24.00
2022-07-27T01:15:52.440Z,24.00
2022-07-27T01:18:35.124Z,24.10
2022-07-27T01:21:07.909Z,24.10
2022-07-27T01:26:24.471Z,24.20
2022-07-27T01:29:00.631Z,24.20
2022-07-27T01:31:31.829Z,24.10
2022-07-27T01:34:02.494Z,24.10
2022-07-27T01:36:33.256Z,24.20
2022-07-27T01:39:03.630Z,24.20
2022-07-27T01:41:34.027Z,24.20
2022-07-27T01:44:04.362Z,24.30
2022-07-27T01:46:34.957Z,24.40
2022-07-27T01:49:08.445Z,24.40
2022-07-27T01:51:39.040Z,24.50
2022-07-27T01:54:09.529Z,24.50
2022-07-27T01:56:39.930Z,24.50
2022-07-27T01:59:16.389Z,24.50
2022-07-27T02:01:47.843Z,24.60
2022-07-27T02:04:20.393Z,24.60
2022-07-27T02:06:50.707Z,24.70
2022-07-27T02:09:22.998Z,24.70
2022-07-27T02:12:07.111Z,24.70
2022-07-27T02:17:26.285Z,24.80
2022-07-27T02:20:00.877Z,24.90
2022-07-27T02:25:19.195Z,25.10
2022-07-27T02:27:50.164Z,25.20
2022-07-27T02:30:20.579Z,25.30
2022-07-27T02:35:36.662Z,25.50
2022-07-27T02:38:06.876Z,25.60
2022-07-27T02:40:37.172Z,25.70
2022-07-27T02:43:07.451Z,25.80
2022-07-27T02:45:37.714Z,25.80
2022-07-27T02:48:08.374Z,25.80
2022-07-27T02:50:38.795Z,25.90
2022-07-27T02:53:09.159Z,26.00
2022-07-27T02:55:39.545Z,26.00
2022-07-27T02:58:09.881Z,26.00
2022-07-27T03:00:41.771Z,26.10
2022-07-27T03:03:13.826Z,26.30
2022-07-27T03:05:44.317Z,26.30
2022-07-27T03:08:14.690Z,26.30
2022-07-27T03:10:48.944Z,26.30
2022-07-27T03:13:19.514Z,26.30
2022-07-27T03:15:49.838Z,26.40
2022-07-27T03:18:20.432Z,26.40
2022-07-27T03:20:50.668Z,26.50
2022-07-27T03:23:22.148Z,26.60
2022-07-27T03:25:52.362Z,26.60
2022-07-27T03:28:22.664Z,26.70
2022-07-27T03:30:53.158Z,26.80
2022-07-27T03:33:23.410Z,26.90
2022-07-27T03:35:54.030Z,27.00
2022-07-27T03:38:25.363Z,27.20
2022-07-27T03:40:55.672Z,27.30
2022-07-27T03:43:26.105Z,27.40
2022-07-27T03:45:56.416Z,27.50
2022-07-27T03:48:26.933Z,27.60
2022-07-27T03:50:57.674Z,27.70
2022-07-27T03:53:27.946Z,27.70
2022-07-27T03:55:58.457Z,27.80
2022-07-27T03:58:28.741Z,27.90
2022-07-27T04:00:59.124Z,27.90
2022-07-27T04:03:29.619Z,28.00
2022-07-27T04:05:59.995Z,28.00
2022-07-27T04:08:32.053Z,28.10
2022-07-27T04:11:04.136Z,28.10
2022-07-27T04:13:38.174Z,28.10
2022-07-27T04:16:08.700Z,28.20
2022-07-27T04:18:39.076Z,28.30
2022-07-27T04:21:09.262Z,28.30
2022-07-27T04:23:39.549Z,28.40
2022-07-27T04:26:09.963Z,28.40
2022-07-27T04:28:40.326Z,28.50
2022-07-27T04:31:10.883Z,28.70
2022-07-27T04:33:41.213Z,28.80
2022-07-27T04:36:12.235Z,28.90
2022-07-27T04:38:42.537Z,29.00
2022-07-27T04:41:13.108Z,28.90
2022-07-27T04:43:43.944Z,28.90
2022-07-27T04:46:15.558Z,29.00
2022-07-27T04:48:49.204Z,29.10
2022-07-27T04:51:23.332Z,29.20
2022-07-27T04:53:58.353Z,29.30
2022-07-27T04:56:29.732Z,29.30
2022-07-27T04:59:00.126Z,29.40
2022-07-27T05:01:35.130Z,29.60
2022-07-27T05:04:07.344Z,29.80
2022-07-27T05:06:37.660Z,29.90
2022-07-27T05:09:08.952Z,29.90
2022-07-27T05:11:39.475Z,29.90
2022-07-27T05:14:09.839Z,29.90
2022-07-27T05:16:42.664Z,30.00
2022-07-27T05:19:14.703Z,30.10
2022-07-27T05:21:45.374Z,30.10
2022-07-27T05:24:15.717Z,30.00
2022-07-27T05:26:47.718Z,30.10
2022-07-27T05:29:18.796Z,30.30
2022-07-27T05:31:49.174Z,30.30
2022-07-27T05:34:19.593Z,30.30
2022-07-27T05:36:49.831Z,30.20
2022-07-27T05:39:20.655Z,30.20
2022-07-27T05:41:51.608Z,30.20
2022-07-27T05:44:21.883Z,30.30
2022-07-27T05:46:52.169Z,30.30
2022-07-27T05:49:22.465Z,30.50
2022-07-27T05:51:52.796Z,30.50
2022-07-27T05:54:23.154Z,30.50
2022-07-27T05:56:54.431Z,30.50
2022-07-27T05:59:24.640Z,30.60
2022-07-27T06:01:55.136Z,30.50
2022-07-27T06:04:25.458Z,30.60
2022-07-27T06:07:12.572Z,30.50
2022-07-27T06:09:43.554Z,30.50
2022-07-27T06:12:14.936Z,30.50
2022-07-27T06:14:45.235Z,30.50
2022-07-27T06:17:21.725Z,30.50
2022-07-27T06:19:51.987Z,30.30
2022-07-27T06:22:22.306Z,30.20
2022-07-27T06:24:52.463Z,30.30
2022-07-27T06:27:25.989Z,30.30
2022-07-27T06:29:58.913Z,30.40
2022-07-27T06:32:29.310Z,30.40
2022-07-27T06:34:59.536Z,30.50
2022-07-27T06:37:31.997Z,30.50
2022-07-27T06:40:03.372Z,30.50
2022-07-27T06:42:34.026Z,30.50
2022-07-27T06:45:04.235Z,30.50
2022-07-27T06:47:35.575Z,30.50
2022-07-27T06:50:20.730Z,30.40
2022-07-27T06:52:51.688Z,30.40
2022-07-27T06:55:22.047Z,30.40
2022-07-27T06:57:52.509Z,30.30
2022-07-27T07:00:22.804Z,30.30
2022-07-27T07:02:57.294Z,30.20
2022-07-27T07:05:28.273Z,30.20
2022-07-27T07:07:59.515Z,30.20
2022-07-27T07:10:31.031Z,30.10
2022-07-27T07:13:07.549Z,30.10
2022-07-27T07:15:40.270Z,30.00
2022-07-27T07:18:11.084Z,30.00
2022-07-27T07:20:41.931Z,29.80
2022-07-27T07:23:13.193Z,29.80
2022-07-27T07:25:45.407Z,29.70
2022-07-27T07:28:15.871Z,29.60
2022-07-27T07:30:46.301Z,29.60
2022-07-27T07:33:16.688Z,29.50
2022-07-27T07:36:12.445Z,29.50
2022-07-27T07:38:53.245Z,29.50
2022-07-27T07:41:30.366Z,29.50
2022-07-27T07:44:09.711Z,29.60
2022-07-27T07:46:50.442Z,29.60
2022-07-27T07:49:50.790Z,29.60
2022-07-27T07:52:31.441Z,29.70
2022-07-27T07:55:19.787Z,29.80
2022-07-27T07:58:45.883Z,29.90
2022-07-27T08:01:49.292Z,29.90
2022-07-27T08:04:26.136Z,30.00
2022-07-27T08:07:00.974Z,30.00
2022-07-27T08:09:35.892Z,30.00
2022-07-27T08:14:55.669Z,29.90
2022-07-27T08:17:27.115Z,29.90
2022-07-27T08:19:57.345Z,29.80
2022-07-27T08:22:27.864Z,29.70
2022-07-27T08:24:58.478Z,29.60
2022-07-27T08:27:28.914Z,29.50
2022-07-27T08:29:59.299Z,29.40
2022-07-27T08:32:32.994Z,29.30
2022-07-27T08:35:03.384Z,29.20
2022-07-27T08:37:34.264Z,29.10
2022-07-27T08:42:55.556Z,28.90
2022-07-27T08:45:26.429Z,28.80
2022-07-27T08:47:56.929Z,28.60
2022-07-27T08:50:32.135Z,28.30
2022-07-27T08:53:08.230Z,28.10
2022-07-27T08:55:41.462Z,27.90
2022-07-27T08:58:12.989Z,27.70
2022-07-27T09:00:46.708Z,27.60
2022-07-27T09:03:21.184Z,27.60
2022-07-27T09:05:58.045Z,27.60
2022-07-27T09:08:32.214Z,27.60
2022-07-27T09:11:05.373Z,27.50
2022-07-27T09:13:37.098Z,27.30
2022-07-27T09:16:19.770Z,27.20
2022-07-27T09:19:00.732Z,27.20
2022-07-27T09:21:31.437Z,27.20
2022-07-27T09:24:45.138Z,27.20
2022-07-27T09:27:08.653Z,26.90
2022-07-27T09:29:39.649Z,26.80
2022-07-27T09:32:24.989Z,26.60
2022-07-27T09:34:55.381Z,26.60
2022-07-27T09:37:30.697Z,26.50
2022-07-27T09:40:26.050Z,26.50
2022-07-27T09:44:12.612Z,26.50
2022-07-27T09:46:10.042Z,26.60
2022-07-27T09:48:40.543Z,26.60
2022-07-27T09:51:57.754Z,26.70
2022-07-27T09:54:11.310Z,26.80
2022-07-27T09:56:41.904Z,26.80
2022-07-27T09:59:13.603Z,26.80
2022-07-27T10:01:48.810Z,26.80
2022-07-27T10:04:23.125Z,26.80
2022-07-27T10:07:02.832Z,26.90
2022-07-27T10:09:36.961Z,26.90
2022-07-27T10:12:07.610Z,26.90
2022-07-27T10:14:38.232Z,27.00
2022-07-27T10:17:10.029Z,27.10
2022-07-27T10:19:49.570Z,27.20
2022-07-27T10:22:40.858Z,27.30
2022-07-27T10:25:11.430Z,27.40
2022-07-27T10:27:41.971Z,27.50
2022-07-27T10:30:12.819Z,27.50
2022-07-27T10:32:46.849Z,27.60
2022-07-27T10:35:37.955Z,27.70
2022-07-27T10:38:20.405Z,27.60
2022-07-27T10:41:10.591Z,27.70
2022-07-27T10:43:40.888Z,27.80
2022-07-27T10:46:11.218Z,27.90
2022-07-27T10:48:48.788Z,28.00
2022-07-27T10:51:36.235Z,28.00
2022-07-27T10:54:24.709Z,28.00
2022-07-27T10:57:00.192Z,28.10
2022-07-27T11:00:08.764Z,28.10
2022-07-27T11:02:44.527Z,28.10
2022-07-27T11:08:35.578Z,28.10
2022-07-27T11:10:56.901Z,28.10
2022-07-27T11:13:30.362Z,28.10
2022-07-27T11:16:28.007Z,28.10
2022-07-27T11:19:03.402Z,28.00
2022-07-27T11:21:38.735Z,28.20
2022-07-27T11:24:19.488Z,28.20
2022-07-27T11:26:52.328Z,28.20
2022-07-27T11:29:24.864Z,28.20
2022-07-27T11:31:58.348Z,28.20
2022-07-27T11:34:34.268Z,28.20
2022-07-27T11:37:07.747Z,28.00
2022-07-27T11:42:40.395Z,27.90
2022-07-27T11:45:11.197Z,27.90
2022-07-27T11:47:41.484Z,27.80
2022-07-27T11:50:15.201Z,27.80
2022-07-27T11:52:45.592Z,27.80
2022-07-27T11:55:15.948Z,27.70
2022-07-27T11:57:46.410Z,27.70
2022-07-27T12:00:16.974Z,27.70
2022-07-27T12:02:54.856Z,27.70
2022-07-27T12:05:25.205Z,27.70
2022-07-27T12:07:57.691Z,27.70
2022-07-27T12:10:28.119Z,27.70
2022-07-27T12:12:58.423Z,27.60
2022-07-27T12:15:45.430Z,27.30
2022-07-27T12:18:17.059Z,27.50
2022-07-27T12:20:50.564Z,27.50
2022-07-27T12:23:21.495Z,27.40
2022-07-27T12:25:51.805Z,27.40
2022-07-27T12:28:27.908Z,27.40
2022-07-27T12:30:58.202Z,27.40
2022-07-27T12:33:36.870Z,27.40
2022-07-27T12:36:10.029Z,27.40
2022-07-27T12:38:45.713Z,27.20
2022-07-27T12:41:31.746Z,27.20
2022-07-27T12:44:19.432Z,27.10
2022-07-27T12:47:25.335Z,27.10
2022-07-27T12:50:11.407Z,27.00
2022-07-27T12:52:49.126Z,27.00
2022-07-27T12:55:20.744Z,27.00
2022-07-27T12:57:56.816Z,26.90
2022-07-27T13:00:33.914Z,26.90
2022-07-27T13:03:06.642Z,26.90
2022-07-27T13:05:38.302Z,26.90
2022-07-27T13:08:10.012Z,26.80
2022-07-27T13:10:41.674Z,26.70
2022-07-27T13:13:12.995Z,26.70
2022-07-27T13:15:43.737Z,26.60
2022-07-27T13:18:14.356Z,26.60
2022-07-27T13:20:46.533Z,26.60
2022-07-27T13:23:16.778Z,26.50
2022-07-27T13:25:47.374Z,26.40
2022-07-27T13:28:17.698Z,26.40
2022-07-27T13:30:49.010Z,26.40
2022-07-27T13:33:19.330Z,26.30
2022-07-27T13:35:51.639Z,26.20
2022-07-27T13:38:31.680Z,26.20
2022-07-27T13:41:02.088Z,26.20
2022-07-27T13:43:32.429Z,26.20
2022-07-27T13:46:02.951Z,26.20
2022-07-27T13:48:34.530Z,26.20
2022-07-27T13:51:05.576Z,26.20
2022-07-27T13:53:36.020Z,26.20
2022-07-27T13:56:06.566Z,26.10
2022-07-27T13:58:37.356Z,26.20
2022-07-27T14:01:08.229Z,26.10
2022-07-27T14:03:39.557Z,26.10
2022-07-27T14:06:09.930Z,26.10
2022-07-27T14:08:41.169Z,26.10
2022-07-27T14:11:11.685Z,26.10
2022-07-27T14:13:42.024Z,26.00
2022-07-27T14:16:13.309Z,25.90
2022-07-27T14:18:43.782Z,25.90
2022-07-27T14:21:14.838Z,25.90
2022-07-27T14:23:45.746Z,26.00
2022-07-27T14:26:16.485Z,25.90
2022-07-27T14:28:47.446Z,25.90
2022-07-27T14:31:18.745Z,25.90
2022-07-27T14:33:49.149Z,25.90
2022-07-27T14:36:19.883Z,25.90
2022-07-27T14:38:50.117Z,25.90
2022-07-27T14:41:20.591Z,25.90
2022-07-27T14:43:50.765Z,25.90
2022-07-27T14:46:21.770Z,25.80
2022-07-27T14:49:07.702Z,25.80
2022-07-27T14:51:38.720Z,25.80
2022-07-27T14:54:09.870Z,25.80
2022-07-27T14:56:40.560Z,25.80
2022-07-27T14:59:11.222Z,25.80
2022-07-27T15:01:42.950Z,25.80
2022-07-27T15:04:13.311Z,25.70
2022-07-27T15:06:43.710Z,25.70
2022-07-27T15:09:14.405Z,25.70
2022-07-27T15:11:45.576Z,25.70
2022-07-27T15:14:15.904Z,25.70
2022-07-27T15:16:46.394Z,25.70
2022-07-27T15:19:17.292Z,25.70
2022-07-27T15:21:53.147Z,25.70
2022-07-27T15:24:24.614Z,25.60
2022-07-27T15:26:55.021Z,25.70
2022-07-27T15:29:25.485Z,25.60
2022-07-27T15:31:56.275Z,25.70
2022-07-27T15:34:28.144Z,25.60
2022-07-27T15:36:58.385Z,25.60
2022-07-27T15:39:29.848Z,25.60
2022-07-27T15:42:00.047Z,25.60
2022-07-27T15:44:30.486Z,25.60
2022-07-27T15:47:01.260Z,25.50
2022-07-27T15:49:32.038Z,25.50
2022-07-27T15:52:03.086Z,25.50
2022-07-27T15:54:36.668Z,25.50
2022-07-27T15:57:18.817Z,25.40
2022-07-27T15:59:49.575Z,25.40
2022-07-27T16:02:24.715Z,25.40
2022-07-27T16:04:58.648Z,25.40
2022-07-27T16:07:40.670Z,25.50
2022-07-27T16:10:19.847Z,25.50
2022-07-27T16:12:53.425Z,25.40
2022-07-27T16:15:48.541Z,25.40
2022-07-27T16:18:28.465Z,25.40
2022-07-27T16:21:00.624Z,25.30
2022-07-27T16:23:32.039Z,25.40
2022-07-27T16:26:06.318Z,25.30
2022-07-27T16:28:49.947Z,25.40
2022-07-27T16:31:24.964Z,25.40
2022-07-27T16:33:58.389Z,25.40
2022-07-27T16:36:35.347Z,25.40
2022-07-27T16:39:10.390Z,25.40
2022-07-27T16:41:41.500Z,25.30
2022-07-27T16:44:12.588Z,25.30
2022-07-27T16:46:44.680Z,25.30
2022-07-27T16:49:16.020Z,25.30
2022-07-27T16:51:46.696Z,25.30
2022-07-27T16:54:17.280Z,25.30
2022-07-27T16:56:48.361Z,25.20
2022-07-27T16:59:18.612Z,25.20
2022-07-27T17:01:49.020Z,25.30
2022-07-27T17:04:19.506Z,25.30
2022-07-27T17:06:50.077Z,25.20
2022-07-27T17:09:20.660Z,25.30
2022-07-27T17:11:52.372Z,25.30
2022-07-27T17:14:25.100Z,25.30
2022-07-27T17:16:55.444Z,25.30
2022-07-27T17:19:26.535Z,25.30
2022-07-27T17:21:56.844Z,25.30
2022-07-27T17:24:27.115Z,25.30
2022-07-27T17:26:57.622Z,25.30
2022-07-27T17:29:28.336Z,25.30
2022-07-27T17:31:58.540Z,25.30
2022-07-27T17:34:29.376Z,25.30
2022-07-27T17:36:59.965Z,25.30
2022-07-27T17:39:31.971Z,25.30
2022-07-27T17:42:02.539Z,25.20
2022-07-27T17:44:33.290Z,25.30
2022-07-27T17:47:05.836Z,25.30
2022-07-27T17:49:36.604Z,25.30
2022-07-27T17:52:08.967Z,25.20
2022-07-27T17:54:39.290Z,25.20
2022-07-27T17:57:10.741Z,25.30
2022-07-27T17:59:41.309Z,25.30
2022-07-27T18:02:11.850Z,25.20
2022-07-27T18:04:42.269Z,25.30
2022-07-27T18:07:14.502Z,25.30
2022-07-27T18:09:45.023Z,25.30
2022-07-27T18:12:16.165Z,25.20
2022-07-27T18:15:06.368Z,25.20
2022-07-27T18:17:41.083Z,25.10
2022-07-27T18:20:13.717Z,25.20
2022-07-27T18:22:45.063Z,25.10
2022-07-27T18:25:15.391Z,25.10
2022-07-27T18:27:47.209Z,25.10
2022-07-27T18:30:18.189Z,25.10
2022-07-27T18:32:48.569Z,25.10
2022-07-27T18:35:20.528Z,25.10
2022-07-27T18:37:51.018Z,25.10
2022-07-27T18:40:21.693Z,25.10
2022-07-27T18:42:51.996Z,25.10
2022-07-27T18:45:22.307Z,25.10
2022-07-27T18:48:04.933Z,25.00
2022-07-27T18:50:39.197Z,24.90
2022-07-27T18:53:10.784Z,24.90
2022-07-27T18:55:41.741Z,24.90
2022-07-27T18:58:12.228Z,24.80
2022-07-27T19:00:42.741Z,24.80
2022-07-27T19:03:12.976Z,24.70
2022-07-27T19:05:46.761Z,24.70
2022-07-27T19:08:17.034Z,24.70
2022-07-27T19:10:47.728Z,24.70
2022-07-27T19:13:18.187Z,24.70
2022-07-27T19:15:48.629Z,24.70
2022-07-27T19:18:18.884Z,24.70
2022-07-27T19:20:49.318Z,24.70
2022-07-27T19:23:19.638Z,24.70
2022-07-27T19:25:50.121Z,24.60
2022-07-27T19:28:22.831Z,24.60
2022-07-27T19:30:53.274Z,24.60
2022-07-27T19:33:23.754Z,24.60
2022-07-27T19:35:54.612Z,24.60
2022-07-27T19:38:25.205Z,24.50
2022-07-27T19:40:57.327Z,24.50
2022-07-27T19:43:27.636Z,24.50
2022-07-27T19:45:58.213Z,24.50
2022-07-27T19:48:30.143Z,24.40
2022-07-27T19:51:06.689Z,24.30
2022-07-27T19:53:37.898Z,24.30
2022-07-27T19:56:08.425Z,24.30
2022-07-27T19:58:38.719Z,24.30
2022-07-27T20:01:09.597Z,24.20
2022-07-27T20:03:52.256Z,24.30
2022-07-27T20:06:27.240Z,24.20
2022-07-27T20:09:01.473Z,24.20
2022-07-27T20:11:33.122Z,24.20
2022-07-27T20:14:05.581Z,24.10
2022-07-27T20:16:40.086Z,24.10
2022-07-27T20:19:10.630Z,24.20
2022-07-27T20:21:42.472Z,24.10
2022-07-27T20:24:12.892Z,24.10
2022-07-27T20:26:47.057Z,24.10
2022-07-27T20:29:19.453Z,24.10
2022-07-27T20:31:49.798Z,24.00
2022-07-27T20:38:03.192Z,24.00
2022-07-27T20:40:33.894Z,24.00
2022-07-27T20:43:04.344Z,24.00
2022-07-27T20:45:37.611Z,24.00
2022-07-27T20:48:08.485Z,24.00
2022-07-27T20:50:38.882Z,23.90
2022-07-27T20:53:09.344Z,23.90
2022-07-27T20:55:40.060Z,24.00
2022-07-27T20:58:10.586Z,24.10
2022-07-27T21:00:41.286Z,24.10
2022-07-27T21:03:11.772Z,24.20
2022-07-27T21:05:42.204Z,24.20
2022-07-27T21:08:12.687Z,24.10
2022-07-27T21:10:43.149Z,24.20
2022-07-27T21:13:13.768Z,24.20
2022-07-27T21:15:44.162Z,24.20
2022-07-27T21:18:14.791Z,24.20
2022-07-27T21:20:45.184Z,24.20
2022-07-27T21:23:33.355Z,24.20
2022-07-27T21:26:04.969Z,24.20
2022-07-27T21:28:35.911Z,24.30
2022-07-27T21:31:06.950Z,24.20
2022-07-27T21:33:39.809Z,24.20
2022-07-27T21:36:10.860Z,24.20
2022-07-27T21:38:41.243Z,24.20
2022-07-27T21:41:11.805Z,24.20
2022-07-27T21:43:42.165Z,24.10
2022-07-27T21:46:12.566Z,24.10
2022-07-27T21:48:42.967Z,24.20
2022-07-27T21:51:13.330Z,24.20
2022-07-27T21:53:44.791Z,24.20
2022-07-27T21:56:15.956Z,24.20
2022-07-27T21:58:48.263Z,24.10
2022-07-27T22:01:19.425Z,24.10
2022-07-27T22:03:50.034Z,24.10
2022-07-27T22:06:20.600Z,24.00
2022-07-27T22:08:51.004Z,24.10
2022-07-27T22:11:21.288Z,24.10
2022-07-27T22:13:51.605Z,24.00
2022-07-27T22:16:21.884Z,24.00
2022-07-27T22:18:52.353Z,24.00
2022-07-27T22:21:22.564Z,24.00
2022-07-27T22:23:52.864Z,24.00
2022-07-27T22:26:23.132Z,24.00
2022-07-27T22:28:53.502Z,24.00
2022-07-27T22:31:23.758Z,24.00
2022-07-27T22:33:54.632Z,24.00
2022-07-27T22:36:24.888Z,24.10
2022-07-27T22:38:55.092Z,24.10
2022-07-27T22:41:25.313Z,24.10
2022-07-27T22:43:55.573Z,24.10
2022-07-27T22:46:26.029Z,24.10
2022-07-27T22:48:56.389Z,24.10
2022-07-27T22:51:48.662Z,24.00
2022-07-27T22:54:19.576Z,24.00
2022-07-27T22:56:50.014Z,24.00
2022-07-27T22:59:20.197Z,23.90
2022-07-27T23:01:51.122Z,23.80
2022-07-27T23:04:21.864Z,23.80
2022-07-27T23:06:52.273Z,23.80
2022-07-27T23:09:23.339Z,23.80
2022-07-27T23:11:53.903Z,23.70
2022-07-27T23:14:27.829Z,23.60
2022-07-27T23:16:58.122Z,23.50
2022-07-27T23:19:29.399Z,23.60
2022-07-27T23:22:01.372Z,23.60
2022-07-27T23:24:32.102Z,23.60
2022-07-27T23:27:04.507Z,23.50
2022-07-27T23:29:34.934Z,23.50
2022-07-27T23:32:06.809Z,23.40
2022-07-27T23:34:37.890Z,23.40
2022-07-27T23:37:08.289Z,23.50
2022-07-27T23:39:38.476Z,23.50
2022-07-27T23:42:08.885Z,23.40
2022-07-27T23:44:39.127Z,23.40
2022-07-27T23:47:09.446Z,23.40
2022-07-27T23:49:43.475Z,23.40
2022-07-27T23:52:13.687Z,23.40
2022-07-27T23:54:44.005Z,23.40
2022-07-27T23:57:14.267Z,23.40
2022-07-27T23:59:44.479Z,23.40
